createdAt,value
2023-05-14T00:00:39.656Z,10.20
2023-05-14T00:01:36.606Z,10.24
2023-05-14T00:02:33.556Z,10.26
2023-05-14T00:03:31.559Z,10.21
2023-05-14T00:04:28.628Z,10.14
2023-05-14T00:05:25.697Z,10.23
2023-05-14T00:06:22.656Z,10.30
2023-05-14T00:07:19.538Z,10.27
2023-05-14T00:08:16.440Z,10.28
2023-05-14T00:09:13.538Z,10.21
2023-05-14T00:10:10.796Z,10.24
2023-05-14T00:11:09.247Z,10.16
2023-05-14T00:12:06.518Z,10.14
2023-05-14T00:13:03.362Z,10.20
2023-05-14T00:14:00.239Z,10.20
2023-05-14T00:14:57.197Z,10.17
2023-05-14T00:15:54.233Z,10.12
2023-05-14T00:16:51.156Z,10.14
2023-05-14T00:17:48.325Z,10.08
2023-05-14T00:18:45.221Z,10.12
2023-05-14T00:19:43.034Z,10.11
2023-05-14T00:20:39.918Z,10.08
2023-05-14T00:21:36.868Z,10.10
2023-05-14T00:22:34.697Z,10.15
2023-05-14T00:23:31.685Z,10.12
2023-05-14T00:24:28.675Z,10.17
2023-05-14T00:25:25.830Z,10.17
2023-05-14T00:26:22.780Z,10.17
2023-05-14T00:27:19.759Z,10.13
2023-05-14T00:28:16.826Z,10.22
2023-05-14T00:29:13.642Z,10.25
2023-05-14T00:30:10.954Z,10.20
2023-05-14T00:31:07.876Z,10.27
2023-05-14T00:32:05.102Z,10.17
2023-05-14T00:33:02.127Z,10.14
2023-05-14T00:33:59.097Z,10.09
2023-05-14T00:34:56.017Z,10.15
2023-05-14T00:35:52.960Z,10.08
2023-05-14T00:36:51.616Z,10.12
2023-05-14T00:37:48.571Z,10.11
2023-05-14T00:38:45.499Z,10.09
2023-05-14T00:39:42.501Z,10.05
2023-05-14T00:40:39.618Z,10.01
2023-05-14T00:41:36.513Z,9.95
2023-05-14T00:42:33.401Z,10.00
2023-05-14T00:43:30.715Z,10.03
2023-05-14T00:44:27.644Z,10.00
2023-05-14T00:45:24.588Z,9.94
2023-05-14T00:46:22.822Z,9.94
2023-05-14T00:47:19.919Z,9.98
2023-05-14T00:48:16.976Z,9.94
2023-05-14T00:49:13.840Z,9.96
2023-05-14T00:50:11.458Z,10.05
2023-05-14T00:51:08.440Z,10.02
2023-05-14T00:52:05.507Z,9.95
2023-05-14T00:53:02.546Z,10.04
2023-05-14T00:53:59.498Z,10.10
2023-05-14T00:54:56.797Z,10.05
2023-05-14T00:55:53.699Z,9.99
2023-05-14T00:56:51.138Z,10.08
2023-05-14T00:57:48.139Z,10.10
2023-05-14T00:58:45.176Z,10.04
2023-05-14T00:59:42.864Z,10.00
2023-05-14T01:00:41.100Z,10.04
2023-05-14T01:01:38.262Z,9.98
2023-05-14T01:02:35.240Z,9.94
2023-05-14T01:03:32.707Z,9.98
2023-05-14T01:04:29.865Z,9.95
2023-05-14T01:05:30.078Z,9.90
2023-05-14T01:06:36.011Z,9.97
2023-05-14T01:07:59.693Z,9.94
2023-05-14T01:09:14.703Z,10.08
2023-05-14T01:10:14.422Z,9.91
2023-05-14T01:11:12.147Z,9.96
2023-05-14T01:12:34.958Z,10.06
2023-05-14T01:13:44.509Z,10.02
2023-05-14T01:14:57.456Z,10.02
2023-05-14T01:15:57.219Z,9.90
2023-05-14T01:16:59.376Z,9.87
2023-05-14T01:18:05.834Z,9.91
2023-05-14T01:19:03.266Z,9.89
2023-05-14T01:20:00.738Z,9.96
2023-05-14T01:20:57.714Z,9.94
2023-05-14T01:21:54.696Z,9.94
2023-05-14T01:22:51.625Z,10.00
2023-05-14T01:23:48.616Z,9.88
2023-05-14T01:24:45.649Z,9.93
2023-05-14T01:25:42.576Z,9.94
2023-05-14T01:26:39.598Z,9.92
2023-05-14T01:27:43.356Z,9.91
2023-05-14T01:28:40.367Z,9.92
2023-05-14T01:29:39.496Z,9.97
2023-05-14T01:30:38.140Z,10.03
2023-05-14T01:31:37.196Z,9.94
2023-05-14T01:32:34.224Z,9.95
2023-05-14T01:33:33.796Z,9.99
2023-05-14T01:34:31.573Z,9.91
2023-05-14T01:35:30.194Z,9.91
2023-05-14T01:36:28.257Z,9.98
2023-05-14T01:37:26.363Z,9.95
2023-05-14T01:38:23.953Z,9.92
2023-05-14T01:39:21.209Z,9.95
2023-05-14T01:40:18.154Z,9.90
2023-05-14T01:41:15.262Z,9.89
2023-05-14T01:42:12.256Z,9.94
2023-05-14T01:43:09.270Z,9.97
2023-05-14T01:44:06.392Z,9.96
2023-05-14T01:45:03.535Z,9.93
2023-05-14T01:46:02.656Z,9.93
2023-05-14T01:46:59.540Z,9.98
2023-05-14T01:47:56.609Z,9.98
2023-05-14T01:48:53.530Z,9.94
2023-05-14T01:49:50.668Z,9.96
2023-05-14T01:50:47.692Z,9.85
2023-05-14T01:51:44.652Z,9.93
2023-05-14T01:52:41.696Z,9.87
2023-05-14T01:53:38.652Z,9.82
2023-05-14T01:54:35.553Z,9.78
2023-05-14T01:55:32.411Z,9.78
2023-05-14T01:56:29.312Z,9.89
2023-05-14T01:57:26.335Z,9.92
2023-05-14T01:58:23.272Z,9.86
2023-05-14T01:59:20.213Z,9.82
2023-05-14T02:00:17.302Z,9.89
2023-05-14T02:01:14.262Z,9.99
2023-05-14T02:02:11.179Z,9.87
2023-05-14T02:03:08.084Z,9.92
2023-05-14T02:04:05.232Z,9.95
2023-05-14T02:05:02.677Z,9.99
2023-05-14T02:06:00.477Z,10.06
2023-05-14T02:06:57.408Z,10.08
2023-05-14T02:07:54.295Z,10.12
2023-05-14T02:08:51.249Z,10.04
2023-05-14T02:09:48.211Z,10.10
2023-05-14T02:10:45.129Z,10.03
2023-05-14T02:11:42.032Z,9.97
2023-05-14T02:12:38.898Z,9.95
2023-05-14T02:13:36.473Z,9.98
2023-05-14T02:14:33.462Z,9.99
2023-05-14T02:15:30.475Z,10.07
2023-05-14T02:16:27.497Z,10.07
2023-05-14T02:17:25.919Z,10.01
2023-05-14T02:18:22.901Z,10.01
2023-05-14T02:19:19.811Z,10.06
2023-05-14T02:20:16.855Z,10.07
2023-05-14T02:21:13.833Z,9.98
2023-05-14T02:22:10.857Z,9.97
2023-05-14T02:23:07.954Z,10.05
2023-05-14T02:24:04.935Z,9.97
2023-05-14T02:25:01.954Z,9.97
2023-05-14T02:25:58.763Z,9.96
2023-05-14T02:26:55.871Z,10.02
2023-05-14T02:27:52.757Z,9.97
2023-05-14T02:28:49.734Z,10.02
2023-05-14T02:29:46.625Z,10.12
2023-05-14T02:30:43.575Z,9.99
2023-05-14T02:31:40.682Z,10.07
2023-05-14T02:32:37.731Z,10.15
2023-05-14T02:33:34.845Z,10.15
2023-05-14T02:34:33.839Z,10.15
2023-05-14T02:35:30.754Z,10.14
2023-05-14T02:36:27.758Z,10.17
2023-05-14T02:37:24.641Z,10.23
2023-05-14T02:38:21.787Z,10.26
2023-05-14T02:39:18.715Z,10.24
2023-05-14T02:40:16.017Z,10.26
2023-05-14T02:41:12.918Z,10.29
2023-05-14T02:42:09.833Z,10.25
2023-05-14T02:43:06.953Z,10.25
2023-05-14T02:44:03.961Z,10.27
2023-05-14T02:45:01.195Z,10.31
2023-05-14T02:45:58.117Z,10.30
2023-05-14T02:46:55.154Z,10.26
2023-05-14T02:47:52.099Z,10.19
2023-05-14T02:48:49.236Z,10.08
2023-05-14T02:49:46.136Z,10.12
2023-05-14T02:50:43.044Z,10.14
2023-05-14T02:51:40.144Z,10.08
2023-05-14T02:52:37.062Z,10.09
2023-05-14T02:53:34.095Z,10.11
2023-05-14T02:54:31.044Z,10.02
2023-05-14T02:55:27.876Z,10.10
2023-05-14T02:56:24.804Z,10.14
2023-05-14T02:57:21.878Z,10.06
2023-05-14T02:58:19.373Z,10.14
2023-05-14T02:59:25.093Z,10.10
2023-05-14T03:00:22.963Z,10.14
2023-05-14T03:01:20.401Z,10.14
2023-05-14T03:02:18.021Z,10.20
2023-05-14T03:03:15.461Z,10.11
2023-05-14T03:04:12.871Z,10.09
2023-05-14T03:05:09.758Z,10.01
2023-05-14T03:06:06.865Z,9.93
2023-05-14T03:07:03.801Z,9.88
2023-05-14T03:08:01.157Z,9.93
2023-05-14T03:08:58.060Z,10.01
2023-05-14T03:09:55.040Z,10.09
2023-05-14T03:10:52.016Z,10.11
2023-05-14T03:11:48.899Z,9.96
2023-05-14T03:12:45.926Z,9.99
2023-05-14T03:13:42.857Z,10.04
2023-05-14T03:14:39.745Z,10.10
2023-05-14T03:15:36.674Z,9.95
2023-05-14T03:16:33.671Z,9.99
2023-05-14T03:17:30.631Z,10.00
2023-05-14T03:18:28.686Z,9.93
2023-05-14T03:19:25.837Z,9.84
2023-05-14T03:20:24.877Z,9.80
2023-05-14T03:21:21.900Z,9.88
2023-05-14T03:22:18.909Z,9.90
2023-05-14T03:23:15.874Z,9.98
2023-05-14T03:24:12.766Z,10.05
2023-05-14T03:25:09.929Z,10.05
2023-05-14T03:26:06.946Z,10.10
2023-05-14T03:27:04.040Z,10.02
2023-05-14T03:28:00.970Z,10.06
2023-05-14T03:28:57.937Z,10.00
2023-05-14T03:29:54.899Z,10.11
2023-05-14T03:30:51.846Z,10.05
2023-05-14T03:31:50.147Z,10.00
2023-05-14T03:32:47.188Z,10.04
2023-05-14T03:33:44.138Z,10.05
2023-05-14T03:34:41.276Z,10.06
2023-05-14T03:35:38.101Z,9.93
2023-05-14T03:36:36.478Z,9.94
2023-05-14T03:37:33.368Z,9.99
2023-05-14T03:38:30.297Z,10.02
2023-05-14T03:39:27.219Z,9.87
2023-05-14T03:40:24.342Z,9.92
2023-05-14T03:41:22.117Z,10.00
2023-05-14T03:42:18.997Z,9.97
2023-05-14T03:43:16.561Z,10.03
2023-05-14T03:44:13.723Z,10.05
2023-05-14T03:45:10.864Z,9.99
2023-05-14T03:46:07.756Z,10.00
2023-05-14T03:47:04.970Z,10.02
2023-05-14T03:48:02.053Z,9.93
2023-05-14T03:48:58.970Z,9.90
2023-05-14T03:49:57.140Z,10.03
2023-05-14T03:50:54.216Z,10.06
2023-05-14T03:51:51.343Z,10.03
2023-05-14T03:52:48.515Z,9.94
2023-05-14T03:53:45.695Z,10.04
2023-05-14T03:54:42.576Z,9.93
2023-05-14T03:55:39.477Z,9.94
2023-05-14T03:56:36.336Z,9.95
2023-05-14T03:57:33.236Z,9.93
2023-05-14T03:58:30.128Z,10.03
2023-05-14T03:59:27.044Z,10.07
2023-05-14T04:00:24.248Z,10.04
2023-05-14T04:01:21.395Z,9.96
2023-05-14T04:02:18.327Z,9.98
2023-05-14T04:03:15.435Z,10.03
2023-05-14T04:04:12.484Z,9.99
2023-05-14T04:05:09.889Z,9.93
2023-05-14T04:06:06.957Z,9.94
2023-05-14T04:07:04.002Z,9.99
2023-05-14T04:08:01.143Z,9.94
2023-05-14T04:08:58.160Z,9.97
2023-05-14T04:09:55.015Z,9.93
2023-05-14T04:10:51.862Z,9.97
2023-05-14T04:11:48.736Z,9.96
2023-05-14T04:12:45.678Z,9.92
2023-05-14T04:13:42.616Z,9.96
2023-05-14T04:14:39.624Z,9.85
2023-05-14T04:15:39.470Z,9.98
2023-05-14T04:16:36.524Z,9.89
2023-05-14T04:17:34.955Z,9.93
2023-05-14T04:18:35.564Z,9.89
2023-05-14T04:19:32.465Z,9.92
2023-05-14T04:20:29.337Z,10.04
2023-05-14T04:21:26.176Z,9.97
2023-05-14T04:22:23.118Z,10.01
2023-05-14T04:23:20.885Z,10.04
2023-05-14T04:24:17.882Z,10.02
2023-05-14T04:25:14.741Z,9.98
2023-05-14T04:26:11.715Z,10.00
2023-05-14T04:27:08.681Z,9.93
2023-05-14T04:28:05.804Z,10.08
2023-05-14T04:29:03.577Z,10.16
2023-05-14T04:30:00.539Z,10.22
2023-05-14T04:30:57.456Z,10.11
2023-05-14T04:31:54.486Z,10.11
2023-05-14T04:32:51.826Z,10.20
2023-05-14T04:33:48.731Z,10.22
2023-05-14T04:34:47.034Z,10.23
2023-05-14T04:35:45.596Z,10.28
2023-05-14T04:36:42.441Z,10.25
2023-05-14T04:37:39.355Z,10.34
2023-05-14T04:38:36.282Z,10.30
2023-05-14T04:39:33.173Z,10.34
2023-05-14T04:40:31.530Z,10.22
2023-05-14T04:41:28.479Z,10.21
2023-05-14T04:42:25.747Z,10.21
2023-05-14T04:43:22.609Z,10.32
2023-05-14T04:44:19.512Z,10.29
2023-05-14T04:45:17.066Z,10.30
2023-05-14T04:46:14.110Z,10.40
2023-05-14T04:47:11.531Z,10.28
2023-05-14T04:48:08.764Z,10.36
2023-05-14T04:49:05.758Z,10.26
2023-05-14T04:50:02.978Z,10.28
2023-05-14T04:50:59.850Z,10.18
2023-05-14T04:51:56.794Z,10.26
2023-05-14T04:52:56.092Z,10.31
2023-05-14T04:53:52.993Z,10.34
2023-05-14T04:54:50.273Z,10.39
2023-05-14T04:55:47.178Z,10.37
2023-05-14T04:56:44.184Z,10.27
2023-05-14T04:57:41.152Z,10.19
2023-05-14T04:58:38.131Z,10.27
2023-05-14T04:59:35.037Z,10.16
2023-05-14T05:00:32.214Z,10.13
2023-05-14T05:01:29.212Z,10.17
2023-05-14T05:02:26.209Z,10.21
2023-05-14T05:03:23.264Z,10.16
2023-05-14T05:04:20.437Z,10.09
2023-05-14T05:05:17.374Z,10.10
2023-05-14T05:06:14.273Z,10.08
2023-05-14T05:07:11.133Z,10.14
2023-05-14T05:08:08.054Z,10.13
2023-05-14T05:09:05.083Z,10.10
2023-05-14T05:10:02.322Z,10.09
2023-05-14T05:10:59.214Z,9.98
2023-05-14T05:11:56.117Z,9.94
2023-05-14T05:12:52.982Z,10.12
2023-05-14T05:13:49.839Z,10.17
2023-05-14T05:14:46.700Z,10.05
2023-05-14T05:15:44.144Z,9.98
2023-05-14T05:16:41.237Z,10.03
2023-05-14T05:17:38.289Z,9.94
2023-05-14T05:18:35.314Z,10.04
2023-05-14T05:19:42.419Z,10.07
2023-05-14T05:20:39.749Z,10.04
2023-05-14T05:21:36.745Z,9.99
2023-05-14T05:22:33.682Z,10.07
2023-05-14T05:23:30.592Z,10.06
2023-05-14T05:24:27.502Z,10.07
2023-05-14T05:25:24.500Z,9.98
2023-05-14T05:26:22.326Z,10.01
2023-05-14T05:27:21.213Z,9.98
2023-05-14T05:28:18.815Z,9.99
2023-05-14T05:29:16.151Z,10.07
2023-05-14T05:30:13.539Z,10.08
2023-05-14T05:31:10.595Z,9.97
2023-05-14T05:32:07.847Z,10.04
2023-05-14T05:33:04.992Z,10.03
2023-05-14T05:34:03.018Z,10.00
2023-05-14T05:34:59.998Z,9.99
2023-05-14T05:35:56.881Z,10.06
2023-05-14T05:36:53.896Z,10.00
2023-05-14T05:37:50.865Z,9.95
2023-05-14T05:38:47.767Z,10.00
2023-05-14T05:39:44.612Z,10.04
2023-05-14T05:40:41.577Z,10.06
2023-05-14T05:41:38.356Z,10.01
2023-05-14T05:42:35.317Z,9.98
2023-05-14T05:43:33.763Z,9.97
2023-05-14T05:44:30.945Z,9.97
2023-05-14T05:45:27.898Z,9.97
2023-05-14T05:46:24.952Z,10.00
2023-05-14T05:47:21.920Z,9.99
2023-05-14T05:48:18.916Z,9.97
2023-05-14T05:49:15.847Z,9.99
2023-05-14T05:50:12.785Z,10.04
2023-05-14T05:51:09.777Z,10.05
2023-05-14T05:52:06.892Z,10.12
2023-05-14T05:53:04.342Z,10.11
2023-05-14T05:54:01.304Z,10.13
2023-05-14T05:54:58.214Z,10.07
2023-05-14T05:55:55.158Z,10.00
2023-05-14T05:56:52.355Z,10.07
2023-05-14T05:57:49.224Z,10.07
2023-05-14T05:58:46.156Z,10.05
2023-05-14T05:59:43.291Z,10.12
2023-05-14T06:00:40.173Z,10.14
2023-05-14T06:01:37.271Z,10.14
2023-05-14T06:02:34.161Z,10.18
2023-05-14T06:03:31.102Z,10.29
2023-05-14T06:04:28.146Z,10.35
2023-05-14T06:05:25.096Z,10.41
2023-05-14T06:06:22.160Z,10.29
2023-05-14T06:07:19.298Z,10.29
2023-05-14T06:08:16.376Z,10.25
2023-05-14T06:09:13.597Z,10.35
2023-05-14T06:10:10.936Z,10.30
2023-05-14T06:11:08.501Z,10.39
2023-05-14T06:12:05.913Z,10.36
2023-05-14T06:13:02.812Z,10.40
2023-05-14T06:13:59.721Z,10.46
2023-05-14T06:14:58.074Z,10.39
2023-05-14T06:15:54.934Z,10.57
2023-05-14T06:16:51.864Z,10.48
2023-05-14T06:17:49.221Z,10.41
2023-05-14T06:18:46.670Z,10.46
2023-05-14T06:19:43.637Z,10.48
2023-05-14T06:20:41.678Z,10.46
2023-05-14T06:21:38.576Z,10.56
2023-05-14T06:22:35.438Z,10.66
2023-05-14T06:23:32.419Z,10.65
2023-05-14T06:24:29.291Z,10.71
2023-05-14T06:25:26.215Z,10.71
2023-05-14T06:26:23.630Z,10.69
2023-05-14T06:27:20.459Z,10.81
2023-05-14T06:28:17.302Z,10.75
2023-05-14T06:29:14.204Z,10.69
2023-05-14T06:30:11.808Z,10.56
2023-05-14T06:31:08.717Z,10.67
2023-05-14T06:32:06.059Z,10.73
2023-05-14T06:33:03.018Z,10.58
2023-05-14T06:33:59.955Z,10.59
2023-05-14T06:34:56.933Z,10.70
2023-05-14T06:35:53.834Z,10.66
2023-05-14T06:36:50.700Z,10.68
2023-05-14T06:37:47.660Z,10.77
2023-05-14T06:38:44.496Z,10.82
2023-05-14T06:39:46.724Z,10.78
2023-05-14T06:40:43.636Z,10.87
2023-05-14T06:41:40.524Z,10.86
2023-05-14T06:42:37.409Z,10.85
2023-05-14T06:43:34.331Z,10.76
2023-05-14T06:44:31.474Z,10.85
2023-05-14T06:45:28.355Z,10.85
2023-05-14T06:46:25.227Z,10.79
2023-05-14T06:47:22.326Z,10.77
2023-05-14T06:48:19.643Z,10.73
2023-05-14T06:49:16.800Z,10.80
2023-05-14T06:50:13.788Z,10.72
2023-05-14T06:51:11.148Z,10.90
2023-05-14T06:52:08.284Z,10.81
2023-05-14T06:53:05.170Z,10.72
2023-05-14T06:54:02.164Z,10.76
2023-05-14T06:54:59.054Z,10.90
2023-05-14T06:55:56.528Z,10.79
2023-05-14T06:56:54.085Z,10.75
2023-05-14T06:57:51.121Z,10.90
2023-05-14T06:58:48.195Z,10.97
2023-05-14T06:59:45.106Z,10.71
2023-05-14T07:00:43.117Z,10.92
2023-05-14T07:01:41.011Z,10.95
2023-05-14T07:02:38.301Z,10.99
2023-05-14T07:03:35.138Z,10.99
2023-05-14T07:04:32.181Z,11.09
2023-05-14T07:05:29.432Z,11.08
2023-05-14T07:06:26.293Z,10.88
2023-05-14T07:07:23.304Z,10.96
2023-05-14T07:08:20.200Z,11.06
2023-05-14T07:09:17.107Z,11.01
2023-05-14T07:10:13.974Z,11.11
2023-05-14T07:11:10.864Z,10.99
2023-05-14T07:12:08.403Z,10.99
2023-05-14T07:13:05.882Z,10.98
2023-05-14T07:14:02.754Z,11.00
2023-05-14T07:14:59.610Z,11.15
2023-05-14T07:15:56.751Z,11.10
2023-05-14T07:16:53.693Z,11.06
2023-05-14T07:17:50.808Z,11.10
2023-05-14T07:18:47.697Z,10.99
2023-05-14T07:19:44.712Z,11.01
2023-05-14T07:20:41.609Z,11.16
2023-05-14T07:21:38.463Z,11.18
2023-05-14T07:22:35.335Z,11.18
2023-05-14T07:23:33.242Z,11.07
2023-05-14T07:24:30.170Z,11.12
2023-05-14T07:25:27.034Z,11.07
2023-05-14T07:26:24.716Z,11.07
2023-05-14T07:27:21.645Z,11.11
2023-05-14T07:28:18.572Z,11.05
2023-05-14T07:29:15.540Z,11.18
2023-05-14T07:30:12.652Z,11.07
2023-05-14T07:31:09.723Z,11.01
2023-05-14T07:32:06.770Z,10.99
2023-05-14T07:33:03.801Z,11.07
2023-05-14T07:34:00.683Z,11.16
2023-05-14T07:34:57.603Z,11.06
2023-05-14T07:35:54.463Z,10.97
2023-05-14T07:36:51.375Z,10.93
2023-05-14T07:37:48.363Z,10.85
2023-05-14T07:38:45.284Z,11.06
2023-05-14T07:39:42.290Z,11.04
2023-05-14T07:40:39.158Z,11.07
2023-05-14T07:41:36.005Z,10.99
2023-05-14T07:42:36.409Z,10.98
2023-05-14T07:43:34.109Z,11.03
2023-05-14T07:44:31.144Z,11.02
2023-05-14T07:45:28.089Z,10.91
2023-05-14T07:46:26.033Z,10.98
2023-05-14T07:47:23.015Z,10.93
2023-05-14T07:48:19.893Z,10.92
2023-05-14T07:49:16.778Z,10.86
2023-05-14T07:50:13.759Z,10.82
2023-05-14T07:51:10.714Z,10.93
2023-05-14T07:52:07.628Z,10.90
2023-05-14T07:53:04.523Z,10.86
2023-05-14T07:54:01.538Z,10.84
2023-05-14T07:54:58.450Z,10.76
2023-05-14T07:55:55.304Z,10.93
2023-05-14T07:56:52.385Z,10.96
2023-05-14T07:57:49.334Z,10.96
2023-05-14T07:58:46.365Z,10.98
2023-05-14T07:59:43.234Z,11.04
2023-05-14T08:00:40.180Z,10.89
2023-05-14T08:01:39.359Z,10.92
2023-05-14T08:02:36.625Z,10.94
2023-05-14T08:03:34.292Z,10.98
2023-05-14T08:04:31.405Z,11.03
2023-05-14T08:05:28.413Z,10.97
2023-05-14T08:06:27.801Z,11.04
2023-05-14T08:07:24.948Z,11.15
2023-05-14T08:08:21.910Z,10.98
2023-05-14T08:09:18.902Z,11.10
2023-05-14T08:10:15.840Z,11.14
2023-05-14T08:11:12.955Z,11.20
2023-05-14T08:12:09.969Z,11.19
2023-05-14T08:13:06.879Z,11.21
2023-05-14T08:14:03.736Z,11.16
2023-05-14T08:15:00.730Z,11.09
2023-05-14T08:15:57.658Z,11.11
2023-05-14T08:16:54.658Z,11.24
2023-05-14T08:17:51.904Z,11.31
2023-05-14T08:18:48.980Z,11.11
2023-05-14T08:19:45.918Z,11.10
2023-05-14T08:20:42.924Z,11.15
2023-05-14T08:21:39.878Z,11.07
2023-05-14T08:22:36.825Z,11.09
2023-05-14T08:23:33.700Z,11.17
2023-05-14T08:24:30.749Z,11.12
2023-05-14T08:25:27.636Z,11.03
2023-05-14T08:26:24.536Z,11.04
2023-05-14T08:27:21.820Z,11.08
2023-05-14T08:28:18.721Z,11.18
2023-05-14T08:29:16.762Z,11.18
2023-05-14T08:30:14.176Z,11.20
2023-05-14T08:31:11.165Z,11.22
2023-05-14T08:32:22.217Z,11.20
2023-05-14T08:33:20.560Z,11.19
2023-05-14T08:34:17.881Z,11.16
2023-05-14T08:35:14.759Z,11.10
2023-05-14T08:36:11.703Z,11.02
2023-05-14T08:37:08.640Z,11.17
2023-05-14T08:38:05.710Z,11.18
2023-05-14T08:39:02.690Z,11.18
2023-05-14T08:39:59.641Z,11.02
2023-05-14T08:41:00.047Z,11.15
2023-05-14T08:41:58.378Z,11.05
2023-05-14T08:42:57.120Z,11.16
2023-05-14T08:44:18.785Z,11.22
2023-05-14T08:45:20.329Z,11.21
2023-05-14T08:46:17.860Z,11.18
2023-05-14T08:47:16.238Z,11.01
2023-05-14T08:48:16.273Z,11.05
2023-05-14T08:49:23.377Z,11.00
2023-05-14T08:50:22.972Z,10.99
2023-05-14T08:51:20.672Z,11.02
2023-05-14T08:52:18.698Z,10.98
2023-05-14T08:53:15.596Z,10.93
2023-05-14T08:54:15.576Z,11.08
2023-05-14T08:55:13.303Z,11.13
2023-05-14T08:56:10.697Z,11.05
2023-05-14T08:57:10.313Z,11.01
2023-05-14T08:58:07.299Z,10.98
2023-05-14T08:59:05.163Z,10.99
2023-05-14T09:00:08.455Z,10.91
2023-05-14T09:01:05.900Z,10.97
2023-05-14T09:02:05.213Z,11.04
2023-05-14T09:03:02.554Z,10.99
2023-05-14T09:04:01.717Z,11.01
2023-05-14T09:05:00.308Z,11.09
2023-05-14T09:06:00.014Z,11.00
2023-05-14T09:06:57.196Z,11.01
2023-05-14T09:07:54.077Z,11.17
2023-05-14T09:08:50.966Z,11.23
2023-05-14T09:09:48.090Z,11.18
2023-05-14T09:10:45.063Z,11.19
2023-05-14T09:11:42.899Z,11.27
2023-05-14T09:12:39.814Z,11.16
2023-05-14T09:13:39.755Z,11.04
2023-05-14T09:14:36.760Z,11.04
2023-05-14T09:15:35.336Z,10.80
2023-05-14T09:16:32.395Z,10.87
2023-05-14T09:17:29.460Z,10.95
2023-05-14T09:18:26.505Z,11.06
2023-05-14T09:19:23.902Z,11.11
2023-05-14T09:20:21.177Z,11.09
2023-05-14T09:21:19.275Z,11.21
2023-05-14T09:22:18.002Z,11.09
2023-05-14T09:23:14.914Z,11.13
2023-05-14T09:24:21.215Z,11.04
2023-05-14T09:25:18.215Z,11.11
2023-05-14T09:26:19.093Z,11.13
2023-05-14T09:27:22.461Z,11.13
2023-05-14T09:28:21.452Z,11.00
2023-05-14T09:29:18.509Z,11.07
2023-05-14T09:30:16.796Z,11.21
2023-05-14T09:31:13.936Z,11.19
2023-05-14T09:32:11.395Z,11.17
2023-05-14T09:33:10.684Z,11.19
2023-05-14T09:34:07.832Z,11.20
2023-05-14T09:35:18.513Z,11.19
2023-05-14T09:36:15.653Z,11.17
2023-05-14T09:37:12.537Z,11.13
2023-05-14T09:38:09.623Z,10.89
2023-05-14T09:39:07.113Z,10.84
2023-05-14T09:40:09.423Z,10.97
2023-05-14T09:41:06.374Z,11.03
2023-05-14T09:42:03.591Z,11.00
2023-05-14T09:43:02.075Z,11.09
2023-05-14T09:43:59.001Z,11.09
2023-05-14T09:44:56.298Z,11.11
2023-05-14T09:45:53.637Z,11.03
2023-05-14T09:46:51.377Z,11.17
2023-05-14T09:47:48.772Z,11.16
2023-05-14T09:48:46.316Z,11.10
2023-05-14T09:49:43.257Z,11.12
2023-05-14T09:50:46.936Z,11.13
2023-05-14T09:51:43.920Z,11.28
2023-05-14T09:52:40.922Z,11.27
2023-05-14T09:53:38.333Z,11.29
2023-05-14T09:54:35.634Z,11.21
2023-05-14T09:55:32.533Z,11.20
2023-05-14T09:56:29.474Z,11.20
2023-05-14T09:57:27.161Z,11.27
2023-05-14T09:58:24.217Z,11.29
2023-05-14T09:59:21.165Z,11.23
2023-05-14T10:00:18.931Z,11.29
2023-05-14T10:01:19.426Z,11.37
2023-05-14T10:02:38.925Z,11.34
2023-05-14T10:03:36.549Z,11.38
2023-05-14T10:04:34.257Z,11.51
2023-05-14T10:05:33.413Z,11.56
2023-05-14T10:06:37.463Z,11.56
2023-05-14T10:07:40.134Z,11.50
2023-05-14T10:08:41.911Z,11.65
2023-05-14T10:09:40.385Z,11.71
2023-05-14T10:10:37.797Z,11.78
2023-05-14T10:11:37.801Z,11.83
2023-05-14T10:12:37.594Z,11.88
2023-05-14T10:13:38.484Z,11.83
2023-05-14T10:14:44.773Z,12.02
2023-05-14T10:15:49.648Z,12.25
2023-05-14T10:16:51.282Z,12.21
2023-05-14T10:17:50.488Z,12.31
2023-05-14T10:18:52.315Z,12.27
2023-05-14T10:19:54.969Z,12.24
2023-05-14T10:20:57.971Z,12.32
2023-05-14T10:22:00.613Z,12.43
2023-05-14T10:22:58.754Z,12.29
2023-05-14T10:23:56.053Z,12.19
2023-05-14T10:24:53.416Z,12.24
2023-05-14T10:25:50.375Z,12.37
2023-05-14T10:26:47.435Z,12.34
2023-05-14T10:27:44.520Z,12.29
2023-05-14T10:28:41.756Z,12.38
2023-05-14T10:29:38.802Z,12.31
2023-05-14T10:30:35.707Z,12.15
2023-05-14T10:31:56.310Z,12.18
2023-05-14T10:33:10.353Z,12.20
2023-05-14T10:34:41.332Z,11.88
2023-05-14T10:36:07.820Z,11.82
2023-05-14T10:37:05.776Z,11.82
2023-05-14T10:38:11.093Z,11.96
2023-05-14T10:39:10.332Z,11.99
2023-05-14T10:40:10.241Z,11.87
2023-05-14T10:41:18.212Z,11.74
2023-05-14T10:42:28.516Z,11.63
2023-05-14T10:43:31.072Z,11.73
2023-05-14T10:44:28.479Z,11.71
2023-05-14T10:45:25.561Z,11.67
2023-05-14T10:46:22.777Z,11.72
2023-05-14T10:47:20.759Z,11.78
2023-05-14T10:48:18.039Z,11.76
2023-05-14T10:49:14.954Z,11.88
2023-05-14T10:50:14.369Z,11.86
2023-05-14T10:51:12.120Z,11.91
2023-05-14T10:52:09.713Z,11.87
2023-05-14T10:53:11.635Z,11.81
2023-05-14T10:54:08.643Z,11.79
2023-05-14T10:55:13.120Z,11.79
2023-05-14T10:56:14.209Z,11.70
2023-05-14T10:57:12.008Z,11.61
2023-05-14T10:58:10.600Z,11.65
2023-05-14T10:59:08.231Z,11.65
2023-05-14T11:00:09.218Z,11.65
2023-05-14T11:01:07.615Z,11.65
2023-05-14T11:02:06.221Z,11.65
2023-05-14T11:03:05.296Z,11.61
2023-05-14T11:04:03.576Z,11.69
2023-05-14T11:05:00.556Z,11.78
2023-05-14T11:05:57.502Z,11.83
2023-05-14T11:06:54.416Z,11.80
2023-05-14T11:07:52.834Z,11.83
2023-05-14T11:08:51.620Z,11.94
2023-05-14T11:09:48.557Z,11.94
2023-05-14T11:10:47.291Z,11.92
2023-05-14T11:11:59.956Z,11.99
2023-05-14T11:12:58.576Z,11.95
2023-05-14T11:13:55.641Z,11.82
2023-05-14T11:14:52.697Z,11.87
2023-05-14T11:15:50.410Z,11.87
2023-05-14T11:16:47.640Z,11.84
2023-05-14T11:17:45.793Z,11.76
2023-05-14T11:18:43.861Z,11.63
2023-05-14T11:19:44.016Z,11.67
2023-05-14T11:20:41.177Z,11.67
2023-05-14T11:21:38.106Z,11.65
2023-05-14T11:22:35.971Z,11.55
2023-05-14T11:23:33.063Z,11.62
2023-05-14T11:24:30.169Z,11.52
2023-05-14T11:25:27.705Z,11.63
2023-05-14T11:26:24.950Z,11.74
2023-05-14T11:27:23.464Z,11.79
2023-05-14T11:28:22.337Z,11.93
2023-05-14T11:29:19.396Z,11.83
2023-05-14T11:30:20.344Z,11.75
2023-05-14T11:31:17.347Z,11.77
2023-05-14T11:32:15.637Z,11.81
2023-05-14T11:33:12.804Z,11.63
2023-05-14T11:34:10.244Z,11.60
2023-05-14T11:35:07.539Z,11.63
2023-05-14T11:36:04.756Z,11.78
2023-05-14T11:37:05.777Z,11.67
2023-05-14T11:38:02.674Z,11.53
2023-05-14T11:38:59.615Z,11.55
2023-05-14T11:40:00.204Z,11.50
2023-05-14T11:40:58.701Z,11.53
2023-05-14T11:41:55.974Z,11.69
2023-05-14T11:42:53.780Z,11.78
2023-05-14T11:43:50.827Z,11.76
2023-05-14T11:44:49.269Z,11.65
2023-05-14T11:45:55.594Z,11.63
2023-05-14T11:46:59.299Z,11.77
2023-05-14T11:47:56.202Z,11.70
2023-05-14T11:48:53.022Z,11.68
2023-05-14T11:49:50.375Z,11.61
2023-05-14T11:50:52.308Z,11.63
2023-05-14T11:51:49.247Z,11.63
2023-05-14T11:52:48.256Z,11.62
2023-05-14T11:53:45.742Z,11.74
2023-05-14T11:54:44.498Z,11.72
2023-05-14T11:55:42.020Z,11.71
2023-05-14T11:56:38.998Z,11.73
2023-05-14T11:57:35.892Z,11.74
2023-05-14T11:58:34.118Z,11.70
2023-05-14T11:59:32.519Z,11.68
2023-05-14T12:00:30.397Z,11.55
2023-05-14T12:01:28.898Z,11.58
2023-05-14T12:02:29.357Z,11.72
2023-05-14T12:03:29.532Z,11.78
2023-05-14T12:04:27.013Z,11.59
2023-05-14T12:05:23.936Z,11.56
2023-05-14T12:06:20.894Z,11.65
2023-05-14T12:07:18.083Z,11.53
2023-05-14T12:08:22.106Z,11.67
2023-05-14T12:09:20.254Z,11.65
2023-05-14T12:10:17.195Z,11.65
2023-05-14T12:11:14.092Z,11.74
2023-05-14T12:12:12.284Z,11.70
2023-05-14T12:13:09.228Z,11.70
2023-05-14T12:14:25.031Z,11.83
2023-05-14T12:15:22.698Z,11.87
2023-05-14T12:16:21.840Z,11.90
2023-05-14T12:17:22.584Z,11.80
2023-05-14T12:18:24.663Z,11.73
2023-05-14T12:19:23.707Z,11.76
2023-05-14T12:20:20.936Z,11.87
2023-05-14T12:21:18.134Z,11.94
2023-05-14T12:22:17.675Z,11.97
2023-05-14T12:23:14.996Z,11.97
2023-05-14T12:24:16.998Z,12.13
2023-05-14T12:25:14.489Z,12.16
2023-05-14T12:26:12.741Z,11.96
2023-05-14T12:27:10.733Z,11.90
2023-05-14T12:28:17.935Z,11.92
2023-05-14T12:29:15.997Z,11.98
2023-05-14T12:30:21.444Z,11.97
2023-05-14T12:31:19.173Z,11.89
2023-05-14T12:32:16.192Z,11.94
2023-05-14T12:33:14.343Z,12.07